sensor_id;sensor_type;location;lat;lon;timestamp;temperature;humidity
11812;DHT22;5963;50.184;9.162;2023-05-07T00:00:46;15.60;99.90
11812;DHT22;5963;50.184;9.162;2023-05-07T00:03:15;15.70;99.90
11812;DHT22;5963;50.184;9.162;2023-05-07T00:05:45;15.80;99.90
11812;DHT22;5963;50.184;9.162;2023-05-07T00:08:16;15.70;99.90
11812;DHT22;5963;50.184;9.162;2023-05-07T00:10:46;15.80;99.90
11812;DHT22;5963;50.184;9.162;2023-05-07T00:13:16;15.90;99.90
11812;DHT22;5963;50.184;9.162;2023-05-07T00:15:45;15.90;99.90
11812;DHT22;5963;50.184;9.162;2023-05-07T00:18:15;15.80;99.90
11812;DHT22;5963;50.184;9.162;2023-05-07T00:20:45;15.70;99.90
11812;DHT22;5963;50.184;9.162;2023-05-07T00:23:16;15.50;99.90
11812;DHT22;5963;50.184;9.162;2023-05-07T00:25:45;15.50;99.90
11812;DHT22;5963;50.184;9.162;2023-05-07T00:28:15;15.50;99.90
11812;DHT22;5963;50.184;9.162;2023-05-07T00:30:45;15.40;99.90
11812;DHT22;5963;50.184;9.162;2023-05-07T00:33:15;15.40;99.90
11812;DHT22;5963;50.184;9.162;2023-05-07T00:35:45;15.40;99.90
11812;DHT22;5963;50.184;9.162;2023-05-07T00:38:16;15.30;99.90
11812;DHT22;5963;50.184;9.162;2023-05-07T00:40:46;15.30;99.90
11812;DHT22;5963;50.184;9.162;2023-05-07T00:43:15;15.20;99.90
11812;DHT22;5963;50.184;9.162;2023-05-07T00:45:45;15.30;99.90
11812;DHT22;5963;50.184;9.162;2023-05-07T00:48:15;15.20;99.90
11812;DHT22;5963;50.184;9.162;2023-05-07T00:50:46;15.20;99.90
11812;DHT22;5963;50.184;9.162;2023-05-07T00:53:17;15.20;99.90
11812;DHT22;5963;50.184;9.162;2023-05-07T00:55:47;15.20;99.90
11812;DHT22;5963;50.184;9.162;2023-05-07T00:58:18;15.20;99.90
11812;DHT22;5963;50.184;9.162;2023-05-07T01:00:49;15.20;99.90
11812;DHT22;5963;50.184;9.162;2023-05-07T01:03:18;15.20;99.90
11812;DHT22;5963;50.184;9.162;2023-05-07T01:05:50;15.20;99.90
11812;DHT22;5963;50.184;9.162;2023-05-07T01:08:22;15.20;99.90
11812;DHT22;5963;50.184;9.162;2023-05-07T01:10:54;15.30;99.90
11812;DHT22;5963;50.184;9.162;2023-05-07T01:13:25;15.30;99.90
11812;DHT22;5963;50.184;9.162;2023-05-07T01:15:55;15.30;99.90
11812;DHT22;5963;50.184;9.162;2023-05-07T01:18:25;15.20;99.90
11812;DHT22;5963;50.184;9.162;2023-05-07T01:20:56;15.20;99.90
11812;DHT22;5963;50.184;9.162;2023-05-07T01:23:29;15.30;99.90
11812;DHT22;5963;50.184;9.162;2023-05-07T01:26:00;15.20;99.90
11812;DHT22;5963;50.184;9.162;2023-05-07T01:28:29;15.20;99.90
11812;DHT22;5963;50.184;9.162;2023-05-07T01:31:02;15.10;99.90
11812;DHT22;5963;50.184;9.162;2023-05-07T01:33:35;15.20;99.90
11812;DHT22;5963;50.184;9.162;2023-05-07T01:36:06;15.10;99.90
11812;DHT22;5963;50.184;9.162;2023-05-07T01:38:39;15.20;99.90
11812;DHT22;5963;50.184;9.162;2023-05-07T01:41:10;15.10;99.90
11812;DHT22;5963;50.184;9.162;2023-05-07T01:43:41;15.10;99.90
11812;DHT22;5963;50.184;9.162;2023-05-07T01:46:12;15.10;99.90
11812;DHT22;5963;50.184;9.162;2023-05-07T01:48:43;15.00;99.90
11812;DHT22;5963;50.184;9.162;2023-05-07T01:51:14;15.10;99.90
11812;DHT22;5963;50.184;9.162;2023-05-07T01:53:45;15.20;99.90
11812;DHT22;5963;50.184;9.162;2023-05-07T01:56:19;15.20;99.90
11812;DHT22;5963;50.184;9.162;2023-05-07T01:58:49;15.10;99.90
11812;DHT22;5963;50.184;9.162;2023-05-07T02:01:20;15.10;99.90
11812;DHT22;5963;50.184;9.162;2023-05-07T02:03:50;15.10;99.90
11812;DHT22;5963;50.184;9.162;2023-05-07T02:06:20;15.10;99.90
11812;DHT22;5963;50.184;9.162;2023-05-07T02:08:51;15.10;99.90
11812;DHT22;5963;50.184;9.162;2023-05-07T02:11:21;15.20;99.90
11812;DHT22;5963;50.184;9.162;2023-05-07T02:13:50;15.10;99.90
11812;DHT22;5963;50.184;9.162;2023-05-07T02:16:21;15.20;99.90
11812;DHT22;5963;50.184;9.162;2023-05-07T02:18:51;15.20;99.90
11812;DHT22;5963;50.184;9.162;2023-05-07T02:21:21;15.10;99.90
11812;DHT22;5963;50.184;9.162;2023-05-07T02:23:53;15.10;99.90
11812;DHT22;5963;50.184;9.162;2023-05-07T02:26:22;15.00;99.90
11812;DHT22;5963;50.184;9.162;2023-05-07T02:28:52;15.10;99.90
11812;DHT22;5963;50.184;9.162;2023-05-07T02:31:22;15.10;99.90
11812;DHT22;5963;50.184;9.162;2023-05-07T02:33:51;15.00;99.90
11812;DHT22;5963;50.184;9.162;2023-05-07T02:36:21;15.00;99.90
11812;DHT22;5963;50.184;9.162;2023-05-07T02:38:52;15.00;99.90
11812;DHT22;5963;50.184;9.162;2023-05-07T02:41:22;15.10;99.90
11812;DHT22;5963;50.184;9.162;2023-05-07T02:43:52;15.10;99.90
11812;DHT22;5963;50.184;9.162;2023-05-07T02:46:21;15.10;99.90
11812;DHT22;5963;50.184;9.162;2023-05-07T02:48:51;15.10;99.90
11812;DHT22;5963;50.184;9.162;2023-05-07T02:51:22;15.10;99.90
11812;DHT22;5963;50.184;9.162;2023-05-07T02:53:55;15.10;99.90
11812;DHT22;5963;50.184;9.162;2023-05-07T02:56:25;15.00;99.90
11812;DHT22;5963;50.184;9.162;2023-05-07T02:58:55;15.00;99.90
11812;DHT22;5963;50.184;9.162;2023-05-07T03:01:24;14.90;99.90
11812;DHT22;5963;50.184;9.162;2023-05-07T03:03:54;15.00;99.90
11812;DHT22;5963;50.184;9.162;2023-05-07T03:06:24;14.90;99.90
11812;DHT22;5963;50.184;9.162;2023-05-07T03:08:55;15.00;99.90
11812;DHT22;5963;50.184;9.162;2023-05-07T03:11:25;14.90;99.90
11812;DHT22;5963;50.184;9.162;2023-05-07T03:13:55;14.90;99.90
11812;DHT22;5963;50.184;9.162;2023-05-07T03:16:25;14.90;99.90
11812;DHT22;5963;50.184;9.162;2023-05-07T03:18:55;14.90;99.90
11812;DHT22;5963;50.184;9.162;2023-05-07T03:21:25;14.90;99.90
11812;DHT22;5963;50.184;9.162;2023-05-07T03:23:56;14.90;99.90
11812;DHT22;5963;50.184;9.162;2023-05-07T03:26:26;14.90;99.90
11812;DHT22;5963;50.184;9.162;2023-05-07T03:28:56;14.90;99.90
11812;DHT22;5963;50.184;9.162;2023-05-07T03:31:25;14.80;99.90
11812;DHT22;5963;50.184;9.162;2023-05-07T03:33:56;14.90;99.90
11812;DHT22;5963;50.184;9.162;2023-05-07T03:36:26;14.90;99.90
11812;DHT22;5963;50.184;9.162;2023-05-07T03:38:57;14.90;99.90
11812;DHT22;5963;50.184;9.162;2023-05-07T03:41:27;14.80;99.90
11812;DHT22;5963;50.184;9.162;2023-05-07T03:43:57;14.90;99.90
11812;DHT22;5963;50.184;9.162;2023-05-07T03:46:27;14.80;99.90
11812;DHT22;5963;50.184;9.162;2023-05-07T03:48:57;14.80;99.90
11812;DHT22;5963;50.184;9.162;2023-05-07T03:51:27;14.90;99.90
11812;DHT22;5963;50.184;9.162;2023-05-07T03:53:58;14.90;99.90
11812;DHT22;5963;50.184;9.162;2023-05-07T03:56:28;14.90;99.90
11812;DHT22;5963;50.184;9.162;2023-05-07T03:58:57;14.90;99.90
11812;DHT22;5963;50.184;9.162;2023-05-07T04:01:27;14.90;99.90
11812;DHT22;5963;50.184;9.162;2023-05-07T04:03:57;14.90;99.90
11812;DHT22;5963;50.184;9.162;2023-05-07T04:06:26;14.90;99.90
11812;DHT22;5963;50.184;9.162;2023-05-07T04:08:58;14.80;99.90
11812;DHT22;5963;50.184;9.162;2023-05-07T04:11:28;14.80;99.90
11812;DHT22;5963;50.184;9.162;2023-05-07T04:13:57;14.80;99.90
11812;DHT22;5963;50.184;9.162;2023-05-07T04:16:27;14.80;99.90
11812;DHT22;5963;50.184;9.162;2023-05-07T04:18:57;14.70;99.90
11812;DHT22;5963;50.184;9.162;2023-05-07T04:21:27;14.70;99.90
11812;DHT22;5963;50.184;9.162;2023-05-07T04:23:58;14.70;99.90
11812;DHT22;5963;50.184;9.162;2023-05-07T04:26:28;14.80;99.90
11812;DHT22;5963;50.184;9.162;2023-05-07T04:28:58;14.80;99.90
11812;DHT22;5963;50.184;9.162;2023-05-07T04:31:28;14.80;99.90
11812;DHT22;5963;50.184;9.162;2023-05-07T04:33:59;14.80;99.90
11812;DHT22;5963;50.184;9.162;2023-05-07T04:36:29;14.90;99.90
11812;DHT22;5963;50.184;9.162;2023-05-07T04:39:04;14.80;99.90
11812;DHT22;5963;50.184;9.162;2023-05-07T04:41:34;14.80;99.90
11812;DHT22;5963;50.184;9.162;2023-05-07T04:44:04;14.90;99.90
11812;DHT22;5963;50.184;9.162;2023-05-07T04:46:35;14.90;99.90
11812;DHT22;5963;50.184;9.162;2023-05-07T04:49:04;15.00;99.90
11812;DHT22;5963;50.184;9.162;2023-05-07T04:51:34;14.90;99.90
11812;DHT22;5963;50.184;9.162;2023-05-07T04:54:06;14.80;99.90
11812;DHT22;5963;50.184;9.162;2023-05-07T04:56:35;14.80;99.90
11812;DHT22;5963;50.184;9.162;2023-05-07T04:59:05;14.70;99.90
11812;DHT22;5963;50.184;9.162;2023-05-07T05:01:35;14.70;99.90
11812;DHT22;5963;50.184;9.162;2023-05-07T05:04:05;14.80;99.90
11812;DHT22;5963;50.184;9.162;2023-05-07T05:06:35;14.80;99.90
11812;DHT22;5963;50.184;9.162;2023-05-07T05:09:06;14.80;99.90
11812;DHT22;5963;50.184;9.162;2023-05-07T05:11:35;14.90;99.90
11812;DHT22;5963;50.184;9.162;2023-05-07T05:14:05;14.90;99.90
11812;DHT22;5963;50.184;9.162;2023-05-07T05:16:35;14.90;99.90
11812;DHT22;5963;50.184;9.162;2023-05-07T05:19:05;15.10;99.90
11812;DHT22;5963;50.184;9.162;2023-05-07T05:21:35;15.20;99.90
11812;DHT22;5963;50.184;9.162;2023-05-07T05:24:07;15.10;99.90
11812;DHT22;5963;50.184;9.162;2023-05-07T05:26:37;15.20;99.90
11812;DHT22;5963;50.184;9.162;2023-05-07T05:29:07;15.10;99.90
11812;DHT22;5963;50.184;9.162;2023-05-07T05:31:36;15.10;99.90
11812;DHT22;5963;50.184;9.162;2023-05-07T05:34:06;15.10;99.90
11812;DHT22;5963;50.184;9.162;2023-05-07T05:36:36;15.10;99.90
11812;DHT22;5963;50.184;9.162;2023-05-07T05:39:07;15.00;99.90
11812;DHT22;5963;50.184;9.162;2023-05-07T05:41:37;15.10;99.90
11812;DHT22;5963;50.184;9.162;2023-05-07T05:44:07;15.10;99.90
11812;DHT22;5963;50.184;9.162;2023-05-07T05:46:37;15.10;99.90
11812;DHT22;5963;50.184;9.162;2023-05-07T05:49:07;15.10;99.90
11812;DHT22;5963;50.184;9.162;2023-05-07T05:51:37;15.20;99.90
11812;DHT22;5963;50.184;9.162;2023-05-07T05:54:08;15.10;99.90
11812;DHT22;5963;50.184;9.162;2023-05-07T05:56:38;15.30;99.90
11812;DHT22;5963;50.184;9.162;2023-05-07T05:59:08;15.40;99.90
11812;DHT22;5963;50.184;9.162;2023-05-07T06:01:37;15.50;99.90
11812;DHT22;5963;50.184;9.162;2023-05-07T06:04:07;15.50;99.90
11812;DHT22;5963;50.184;9.162;2023-05-07T06:06:37;15.50;99.90
11812;DHT22;5963;50.184;9.162;2023-05-07T06:09:08;15.50;99.90
11812;DHT22;5963;50.184;9.162;2023-05-07T06:11:38;15.40;99.90
11812;DHT22;5963;50.184;9.162;2023-05-07T06:14:09;15.40;99.90
11812;DHT22;5963;50.184;9.162;2023-05-07T06:16:39;15.30;99.90
11812;DHT22;5963;50.184;9.162;2023-05-07T06:19:09;15.40;99.90
11812;DHT22;5963;50.184;9.162;2023-05-07T06:21:38;15.60;99.90
11812;DHT22;5963;50.184;9.162;2023-05-07T06:24:10;15.60;99.90
11812;DHT22;5963;50.184;9.162;2023-05-07T06:26:40;15.80;99.90
11812;DHT22;5963;50.184;9.162;2023-05-07T06:29:10;15.80;99.90
11812;DHT22;5963;50.184;9.162;2023-05-07T06:31:39;15.70;99.90
11812;DHT22;5963;50.184;9.162;2023-05-07T06:34:09;15.70;99.90
11812;DHT22;5963;50.184;9.162;2023-05-07T06:36:42;15.90;99.90
11812;DHT22;5963;50.184;9.162;2023-05-07T06:39:13;15.90;99.90
11812;DHT22;5963;50.184;9.162;2023-05-07T06:41:43;15.90;99.90
11812;DHT22;5963;50.184;9.162;2023-05-07T06:44:13;16.10;99.90
11812;DHT22;5963;50.184;9.162;2023-05-07T06:46:43;16.20;99.90
11812;DHT22;5963;50.184;9.162;2023-05-07T06:49:14;16.10;99.90
11812;DHT22;5963;50.184;9.162;2023-05-07T06:51:44;16.00;99.90
11812;DHT22;5963;50.184;9.162;2023-05-07T06:54:15;16.20;99.90
11812;DHT22;5963;50.184;9.162;2023-05-07T06:56:44;16.20;99.90
11812;DHT22;5963;50.184;9.162;2023-05-07T06:59:14;16.10;99.90
11812;DHT22;5963;50.184;9.162;2023-05-07T07:01:44;16.30;99.90
11812;DHT22;5963;50.184;9.162;2023-05-07T07:04:14;16.30;99.90
11812;DHT22;5963;50.184;9.162;2023-05-07T07:06:43;16.30;99.90
11812;DHT22;5963;50.184;9.162;2023-05-07T07:09:15;16.50;99.90
11812;DHT22;5963;50.184;9.162;2023-05-07T07:11:44;16.50;99.90
11812;DHT22;5963;50.184;9.162;2023-05-07T07:14:14;16.50;99.90
11812;DHT22;5963;50.184;9.162;2023-05-07T07:16:44;16.60;99.90
11812;DHT22;5963;50.184;9.162;2023-05-07T07:19:15;16.50;99.90
11812;DHT22;5963;50.184;9.162;2023-05-07T07:21:45;16.70;99.90
11812;DHT22;5963;50.184;9.162;2023-05-07T07:24:16;16.70;99.90
11812;DHT22;5963;50.184;9.162;2023-05-07T07:26:49;16.80;99.90
11812;DHT22;5963;50.184;9.162;2023-05-07T07:29:19;16.80;99.90
11812;DHT22;5963;50.184;9.162;2023-05-07T07:31:49;17.10;99.90
11812;DHT22;5963;50.184;9.162;2023-05-07T07:34:19;17.50;99.90
11812;DHT22;5963;50.184;9.162;2023-05-07T07:36:49;17.40;99.90
11812;DHT22;5963;50.184;9.162;2023-05-07T07:39:20;17.80;99.90
11812;DHT22;5963;50.184;9.162;2023-05-07T07:41:49;18.00;99.90
11812;DHT22;5963;50.184;9.162;2023-05-07T07:44:19;18.40;99.90
11812;DHT22;5963;50.184;9.162;2023-05-07T07:46:49;18.10;99.90
11812;DHT22;5963;50.184;9.162;2023-05-07T07:49:19;18.00;99.90
11812;DHT22;5963;50.184;9.162;2023-05-07T07:51:48;17.80;99.90
11812;DHT22;5963;50.184;9.162;2023-05-07T07:54:20;17.90;99.90
11812;DHT22;5963;50.184;9.162;2023-05-07T07:56:50;18.00;99.90
11812;DHT22;5963;50.184;9.162;2023-05-07T07:59:20;17.90;99.90
11812;DHT22;5963;50.184;9.162;2023-05-07T08:01:50;17.70;99.90
11812;DHT22;5963;50.184;9.162;2023-05-07T08:04:23;17.40;99.90
11812;DHT22;5963;50.184;9.162;2023-05-07T08:06:52;17.70;99.90
11812;DHT22;5963;50.184;9.162;2023-05-07T08:09:24;17.80;99.90
11812;DHT22;5963;50.184;9.162;2023-05-07T08:11:54;17.80;99.90
11812;DHT22;5963;50.184;9.162;2023-05-07T08:14:24;18.10;99.90
11812;DHT22;5963;50.184;9.162;2023-05-07T08:16:54;18.50;99.90
11812;DHT22;5963;50.184;9.162;2023-05-07T08:19:23;19.20;99.90
11812;DHT22;5963;50.184;9.162;2023-05-07T08:21:53;19.10;99.90
11812;DHT22;5963;50.184;9.162;2023-05-07T08:24:24;18.90;99.90
11812;DHT22;5963;50.184;9.162;2023-05-07T08:26:54;19.30;99.90
11812;DHT22;5963;50.184;9.162;2023-05-07T08:29:24;19.30;99.90
11812;DHT22;5963;50.184;9.162;2023-05-07T08:31:54;19.40;99.90
11812;DHT22;5963;50.184;9.162;2023-05-07T08:34:24;19.40;99.90
11812;DHT22;5963;50.184;9.162;2023-05-07T08:36:53;19.30;99.90
11812;DHT22;5963;50.184;9.162;2023-05-07T08:39:25;20.00;99.90
11812;DHT22;5963;50.184;9.162;2023-05-07T08:41:57;20.20;99.90
11812;DHT22;5963;50.184;9.162;2023-05-07T08:44:34;20.40;99.90
11812;DHT22;5963;50.184;9.162;2023-05-07T08:47:06;20.80;99.90
11812;DHT22;5963;50.184;9.162;2023-05-07T08:49:36;21.00;99.90
11812;DHT22;5963;50.184;9.162;2023-05-07T08:52:06;20.70;99.90
11812;DHT22;5963;50.184;9.162;2023-05-07T08:54:40;20.70;99.90
11812;DHT22;5963;50.184;9.162;2023-05-07T08:57:10;20.80;99.90
11812;DHT22;5963;50.184;9.162;2023-05-07T08:59:39;20.60;99.90
11812;DHT22;5963;50.184;9.162;2023-05-07T09:02:11;20.20;99.90
11812;DHT22;5963;50.184;9.162;2023-05-07T09:04:41;20.60;99.90
11812;DHT22;5963;50.184;9.162;2023-05-07T09:07:11;20.80;99.90
11812;DHT22;5963;50.184;9.162;2023-05-07T09:09:42;20.80;99.90
11812;DHT22;5963;50.184;9.162;2023-05-07T09:12:13;21.00;99.90
11812;DHT22;5963;50.184;9.162;2023-05-07T09:14:43;21.20;99.90
11812;DHT22;5963;50.184;9.162;2023-05-07T09:17:13;21.50;99.90
11812;DHT22;5963;50.184;9.162;2023-05-07T09:19:43;21.90;99.90
11812;DHT22;5963;50.184;9.162;2023-05-07T09:22:13;22.00;99.90
11812;DHT22;5963;50.184;9.162;2023-05-07T09:24:49;22.00;99.90
11812;DHT22;5963;50.184;9.162;2023-05-07T09:27:19;22.30;99.90
11812;DHT22;5963;50.184;9.162;2023-05-07T09:29:49;22.70;99.90
11812;DHT22;5963;50.184;9.162;2023-05-07T09:32:19;22.90;99.90
11812;DHT22;5963;50.184;9.162;2023-05-07T09:34:49;23.00;99.90
11812;DHT22;5963;50.184;9.162;2023-05-07T09:37:19;23.10;99.90
11812;DHT22;5963;50.184;9.162;2023-05-07T09:39:50;22.80;99.90
11812;DHT22;5963;50.184;9.162;2023-05-07T09:42:25;22.10;99.90
11812;DHT22;5963;50.184;9.162;2023-05-07T09:44:55;22.10;99.90
11812;DHT22;5963;50.184;9.162;2023-05-07T09:47:26;22.50;99.90
11812;DHT22;5963;50.184;9.162;2023-05-07T09:49:58;22.80;99.90
11812;DHT22;5963;50.184;9.162;2023-05-07T09:52:29;23.40;99.90
11812;DHT22;5963;50.184;9.162;2023-05-07T09:55:03;23.70;99.90
11812;DHT22;5963;50.184;9.162;2023-05-07T09:57:35;23.60;99.90
11812;DHT22;5963;50.184;9.162;2023-05-07T10:00:06;23.20;99.90
11812;DHT22;5963;50.184;9.162;2023-05-07T10:02:38;23.10;99.90
11812;DHT22;5963;50.184;9.162;2023-05-07T10:05:15;23.20;99.90
11812;DHT22;5963;50.184;9.162;2023-05-07T10:07:45;23.20;99.90
11812;DHT22;5963;50.184;9.162;2023-05-07T10:10:16;23.00;99.90
11812;DHT22;5963;50.184;9.162;2023-05-07T10:12:46;23.50;99.90
11812;DHT22;5963;50.184;9.162;2023-05-07T10:15:16;23.60;99.90
11812;DHT22;5963;50.184;9.162;2023-05-07T10:17:46;24.20;99.90
11812;DHT22;5963;50.184;9.162;2023-05-07T10:20:18;24.40;99.90
11812;DHT22;5963;50.184;9.162;2023-05-07T10:22:49;24.10;99.90
11812;DHT22;5963;50.184;9.162;2023-05-07T10:25:25;23.80;99.90
11812;DHT22;5963;50.184;9.162;2023-05-07T10:27:59;23.50;99.90
11812;DHT22;5963;50.184;9.162;2023-05-07T10:30:34;23.40;99.90
11812;DHT22;5963;50.184;9.162;2023-05-07T10:33:10;23.80;99.90
11812;DHT22;5963;50.184;9.162;2023-05-07T10:35:43;24.50;99.90
11812;DHT22;5963;50.184;9.162;2023-05-07T10:38:13;24.80;99.90
11812;DHT22;5963;50.184;9.162;2023-05-07T10:40:44;25.20;99.90
11812;DHT22;5963;50.184;9.162;2023-05-07T10:43:15;25.20;99.90
11812;DHT22;5963;50.184;9.162;2023-05-07T10:45:45;25.10;99.90
11812;DHT22;5963;50.184;9.162;2023-05-07T10:48:34;24.80;99.90
11812;DHT22;5963;50.184;9.162;2023-05-07T10:51:18;24.70;99.90
11812;DHT22;5963;50.184;9.162;2023-05-07T10:53:47;24.40;99.90
11812;DHT22;5963;50.184;9.162;2023-05-07T10:56:28;24.70;99.90
11812;DHT22;5963;50.184;9.162;2023-05-07T10:59:30;24.50;99.90
11812;DHT22;5963;50.184;9.162;2023-05-07T11:02:02;24.60;99.90
11812;DHT22;5963;50.184;9.162;2023-05-07T11:04:35;24.50;99.90
11812;DHT22;5963;50.184;9.162;2023-05-07T11:10:04;24.40;99.90
11812;DHT22;5963;50.184;9.162;2023-05-07T11:12:51;24.00;99.90
11812;DHT22;5963;50.184;9.162;2023-05-07T11:15:39;24.10;99.90
11812;DHT22;5963;50.184;9.162;2023-05-07T11:18:12;24.00;99.90
11812;DHT22;5963;50.184;9.162;2023-05-07T11:20:59;24.30;99.90
11812;DHT22;5963;50.184;9.162;2023-05-07T11:23:55;24.60;99.90
11812;DHT22;5963;50.184;9.162;2023-05-07T11:26:26;24.60;99.90
11812;DHT22;5963;50.184;9.162;2023-05-07T11:28:56;24.60;99.90
11812;DHT22;5963;50.184;9.162;2023-05-07T11:31:29;24.50;99.90
11812;DHT22;5963;50.184;9.162;2023-05-07T11:34:00;24.30;99.90
11812;DHT22;5963;50.184;9.162;2023-05-07T11:36:34;24.20;99.90
11812;DHT22;5963;50.184;9.162;2023-05-07T11:39:03;24.30;99.90
11812;DHT22;5963;50.184;9.162;2023-05-07T11:41:37;24.20;99.90
11812;DHT22;5963;50.184;9.162;2023-05-07T11:44:07;23.90;99.90
11812;DHT22;5963;50.184;9.162;2023-05-07T11:46:36;23.90;99.90
11812;DHT22;5963;50.184;9.162;2023-05-07T11:49:08;24.00;99.90
11812;DHT22;5963;50.184;9.162;2023-05-07T11:51:38;23.90;99.90
11812;DHT22;5963;50.184;9.162;2023-05-07T11:54:10;23.60;99.90
11812;DHT22;5963;50.184;9.162;2023-05-07T11:56:41;23.50;99.90
11812;DHT22;5963;50.184;9.162;2023-05-07T11:59:11;23.20;99.90
11812;DHT22;5963;50.184;9.162;2023-05-07T12:01:42;23.70;99.90
11812;DHT22;5963;50.184;9.162;2023-05-07T12:04:16;23.40;99.90
11812;DHT22;5963;50.184;9.162;2023-05-07T12:06:48;23.90;99.90
11812;DHT22;5963;50.184;9.162;2023-05-07T12:09:19;24.40;99.90
11812;DHT22;5963;50.184;9.162;2023-05-07T12:11:49;24.40;99.90
11812;DHT22;5963;50.184;9.162;2023-05-07T12:14:20;24.20;99.90
11812;DHT22;5963;50.184;9.162;2023-05-07T12:16:50;24.90;99.90
11812;DHT22;5963;50.184;9.162;2023-05-07T12:19:22;25.10;99.90
11812;DHT22;5963;50.184;9.162;2023-05-07T12:21:52;25.30;99.90
11812;DHT22;5963;50.184;9.162;2023-05-07T12:24:22;25.30;99.90
11812;DHT22;5963;50.184;9.162;2023-05-07T12:26:55;25.30;99.90
11812;DHT22;5963;50.184;9.162;2023-05-07T12:29:25;25.20;99.90
11812;DHT22;5963;50.184;9.162;2023-05-07T12:31:55;25.30;99.90
11812;DHT22;5963;50.184;9.162;2023-05-07T12:34:26;25.20;99.90
11812;DHT22;5963;50.184;9.162;2023-05-07T12:36:56;25.00;99.90
11812;DHT22;5963;50.184;9.162;2023-05-07T12:39:27;24.90;99.80
11812;DHT22;5963;50.184;9.162;2023-05-07T12:41:58;24.90;99.70
11812;DHT22;5963;50.184;9.162;2023-05-07T12:44:32;24.70;99.60
11812;DHT22;5963;50.184;9.162;2023-05-07T12:47:03;24.70;98.80
11812;DHT22;5963;50.184;9.162;2023-05-07T12:49:36;24.50;98.90
11812;DHT22;5963;50.184;9.162;2023-05-07T12:52:07;24.40;99.90
11812;DHT22;5963;50.184;9.162;2023-05-07T12:54:39;24.30;99.40
11812;DHT22;5963;50.184;9.162;2023-05-07T12:57:10;24.60;99.50
11812;DHT22;5963;50.184;9.162;2023-05-07T12:59:41;24.10;99.50
11812;DHT22;5963;50.184;9.162;2023-05-07T13:02:11;23.80;99.40
11812;DHT22;5963;50.184;9.162;2023-05-07T13:04:42;23.60;99.90
11812;DHT22;5963;50.184;9.162;2023-05-07T13:07:12;23.60;99.80
11812;DHT22;5963;50.184;9.162;2023-05-07T13:09:42;24.00;99.70
11812;DHT22;5963;50.184;9.162;2023-05-07T13:12:11;24.00;99.80
11812;DHT22;5963;50.184;9.162;2023-05-07T13:14:41;24.40;99.90
11812;DHT22;5963;50.184;9.162;2023-05-07T13:17:11;24.60;99.30
11812;DHT22;5963;50.184;9.162;2023-05-07T13:19:42;24.60;99.50
11812;DHT22;5963;50.184;9.162;2023-05-07T13:22:12;23.90;98.60
11812;DHT22;5963;50.184;9.162;2023-05-07T13:24:42;23.50;99.00
11812;DHT22;5963;50.184;9.162;2023-05-07T13:27:12;23.50;99.40
11812;DHT22;5963;50.184;9.162;2023-05-07T13:29:42;23.30;99.50
11812;DHT22;5963;50.184;9.162;2023-05-07T13:32:12;23.10;99.90
11812;DHT22;5963;50.184;9.162;2023-05-07T13:34:43;23.10;99.70
11812;DHT22;5963;50.184;9.162;2023-05-07T13:37:13;23.10;99.90
11812;DHT22;5963;50.184;9.162;2023-05-07T13:39:43;23.50;99.90
11812;DHT22;5963;50.184;9.162;2023-05-07T13:42:13;23.70;99.90
11812;DHT22;5963;50.184;9.162;2023-05-07T13:44:43;23.50;99.90
11812;DHT22;5963;50.184;9.162;2023-05-07T13:47:13;23.60;99.90
11812;DHT22;5963;50.184;9.162;2023-05-07T13:49:44;23.80;99.90
11812;DHT22;5963;50.184;9.162;2023-05-07T13:52:14;24.20;99.90
11812;DHT22;5963;50.184;9.162;2023-05-07T13:54:44;24.30;99.80
11812;DHT22;5963;50.184;9.162;2023-05-07T13:57:14;24.20;99.90
11812;DHT22;5963;50.184;9.162;2023-05-07T13:59:44;24.20;99.90
11812;DHT22;5963;50.184;9.162;2023-05-07T14:02:14;24.10;99.90
11812;DHT22;5963;50.184;9.162;2023-05-07T14:04:46;24.10;99.70
11812;DHT22;5963;50.184;9.162;2023-05-07T14:07:16;24.20;99.60
11812;DHT22;5963;50.184;9.162;2023-05-07T14:09:45;23.70;99.90
11812;DHT22;5963;50.184;9.162;2023-05-07T14:12:15;23.80;99.90
11812;DHT22;5963;50.184;9.162;2023-05-07T14:14:45;23.70;99.90
11812;DHT22;5963;50.184;9.162;2023-05-07T14:17:15;23.70;99.90
11812;DHT22;5963;50.184;9.162;2023-05-07T14:19:46;23.90;99.80
11812;DHT22;5963;50.184;9.162;2023-05-07T14:22:16;23.80;99.90
11812;DHT22;5963;50.184;9.162;2023-05-07T14:24:46;24.00;99.90
11812;DHT22;5963;50.184;9.162;2023-05-07T14:27:33;23.60;99.90
11812;DHT22;5963;50.184;9.162;2023-05-07T14:30:03;23.50;99.90
11812;DHT22;5963;50.184;9.162;2023-05-07T14:32:34;23.50;99.70
11812;DHT22;5963;50.184;9.162;2023-05-07T14:35:06;23.80;99.90
11812;DHT22;5963;50.184;9.162;2023-05-07T14:37:37;23.90;99.90
11812;DHT22;5963;50.184;9.162;2023-05-07T14:40:09;24.20;99.70
11812;DHT22;5963;50.184;9.162;2023-05-07T14:42:39;24.10;99.50
11812;DHT22;5963;50.184;9.162;2023-05-07T14:45:10;24.40;99.10
11812;DHT22;5963;50.184;9.162;2023-05-07T14:47:40;24.60;98.60
11812;DHT22;5963;50.184;9.162;2023-05-07T14:50:12;24.40;99.40
11812;DHT22;5963;50.184;9.162;2023-05-07T14:52:41;24.00;99.70
11812;DHT22;5963;50.184;9.162;2023-05-07T14:55:11;24.20;99.30
11812;DHT22;5963;50.184;9.162;2023-05-07T14:57:41;24.30;97.80
11812;DHT22;5963;50.184;9.162;2023-05-07T15:00:11;24.30;98.10
11812;DHT22;5963;50.184;9.162;2023-05-07T15:02:41;24.30;98.90
11812;DHT22;5963;50.184;9.162;2023-05-07T15:05:13;24.10;99.80
11812;DHT22;5963;50.184;9.162;2023-05-07T15:07:43;24.30;99.90
11812;DHT22;5963;50.184;9.162;2023-05-07T15:10:14;24.70;98.80
11812;DHT22;5963;50.184;9.162;2023-05-07T15:12:44;24.70;98.80
11812;DHT22;5963;50.184;9.162;2023-05-07T15:15:14;24.80;98.10
11812;DHT22;5963;50.184;9.162;2023-05-07T15:17:44;24.70;98.00
11812;DHT22;5963;50.184;9.162;2023-05-07T15:20:15;24.60;97.30
11812;DHT22;5963;50.184;9.162;2023-05-07T15:22:46;24.40;97.90
11812;DHT22;5963;50.184;9.162;2023-05-07T15:25:15;24.10;98.40
11812;DHT22;5963;50.184;9.162;2023-05-07T15:27:45;24.00;98.60
11812;DHT22;5963;50.184;9.162;2023-05-07T15:30:16;23.70;98.50
11812;DHT22;5963;50.184;9.162;2023-05-07T15:32:45;23.60;98.50
11812;DHT22;5963;50.184;9.162;2023-05-07T15:35:16;23.60;99.00
11812;DHT22;5963;50.184;9.162;2023-05-07T15:37:50;23.70;98.60
11812;DHT22;5963;50.184;9.162;2023-05-07T15:40:19;23.70;98.30
11812;DHT22;5963;50.184;9.162;2023-05-07T15:42:49;23.70;98.40
11812;DHT22;5963;50.184;9.162;2023-05-07T15:45:19;23.60;98.80
11812;DHT22;5963;50.184;9.162;2023-05-07T15:47:49;23.50;99.20
11812;DHT22;5963;50.184;9.162;2023-05-07T15:50:20;23.20;99.50
11812;DHT22;5963;50.184;9.162;2023-05-07T15:52:50;23.20;99.70
11812;DHT22;5963;50.184;9.162;2023-05-07T15:55:20;23.20;99.30
11812;DHT22;5963;50.184;9.162;2023-05-07T15:57:50;23.20;99.30
11812;DHT22;5963;50.184;9.162;2023-05-07T16:00:20;23.10;99.20
11812;DHT22;5963;50.184;9.162;2023-05-07T16:02:50;23.00;99.50
11812;DHT22;5963;50.184;9.162;2023-05-07T16:05:21;22.80;99.60
11812;DHT22;5963;50.184;9.162;2023-05-07T16:07:51;22.70;99.80
11812;DHT22;5963;50.184;9.162;2023-05-07T16:10:21;22.80;99.90